createdAt,value
2019-01-21T00:00:08.971Z,30.30
2019-01-21T00:01:08.920Z,29.60
2019-01-21T00:02:08.932Z,29.00
2019-01-21T00:03:14.403Z,29.50
2019-01-21T00:04:09.898Z,31.80
2019-01-21T00:05:08.886Z,30.80
2019-01-21T00:06:08.873Z,30.90
2019-01-21T00:07:08.880Z,28.70
2019-01-21T00:08:08.874Z,28.80
2019-01-21T00:09:08.841Z,31.20
2019-01-21T00:10:08.825Z,31.30
2019-01-21T00:11:08.818Z,30.00
2019-01-21T00:12:08.807Z,33.60
2019-01-21T00:13:08.856Z,28.90
2019-01-21T00:14:08.783Z,26.70
2019-01-21T00:15:08.775Z,30.70
2019-01-21T00:16:08.762Z,31.90
2019-01-21T00:17:08.755Z,30.50
2019-01-21T00:18:08.770Z,28.40
2019-01-21T00:19:08.740Z,30.70
2019-01-21T00:20:08.718Z,30.20
2019-01-21T00:21:08.707Z,31.40
2019-01-21T00:22:08.697Z,31.40
2019-01-21T00:23:08.685Z,33.60
2019-01-21T00:24:08.704Z,34.00
2019-01-21T00:25:08.663Z,32.80
2019-01-21T00:26:08.661Z,31.50
2019-01-21T00:27:08.643Z,33.90
2019-01-21T00:28:08.633Z,31.40
2019-01-21T00:29:08.639Z,33.50
2019-01-21T00:30:08.617Z,32.20
2019-01-21T00:31:08.605Z,30.80
2019-01-21T00:32:08.592Z,30.20
2019-01-21T00:33:08.591Z,28.90
2019-01-21T00:34:08.587Z,30.10
2019-01-21T00:35:08.558Z,31.20
2019-01-21T00:36:08.546Z,28.20
2019-01-21T00:37:08.542Z,32.70
2019-01-21T00:38:08.544Z,31.50
2019-01-21T00:39:08.531Z,28.60
2019-01-21T00:40:08.514Z,28.90
2019-01-21T00:41:08.502Z,31.90
2019-01-21T00:42:08.484Z,32.20
2019-01-21T00:43:08.483Z,32.40
2019-01-21T00:44:08.497Z,30.40
2019-01-21T00:45:08.452Z,29.90
2019-01-21T00:46:08.461Z,30.50
2019-01-21T00:47:08.431Z,28.90
2019-01-21T00:48:08.433Z,31.30
2019-01-21T00:49:08.428Z,28.90
2019-01-21T00:50:08.413Z,29.50
2019-01-21T00:51:08.392Z,29.40
2019-01-21T00:52:08.375Z,29.00
2019-01-21T00:53:08.366Z,29.10
2019-01-21T00:54:08.371Z,29.50
2019-01-21T00:55:08.345Z,28.20
2019-01-21T00:56:08.333Z,28.00
2019-01-21T00:57:08.324Z,28.00
2019-01-21T00:58:08.355Z,31.40
2019-01-21T00:59:08.317Z,31.10
2019-01-21T01:00:08.291Z,27.60
2019-01-21T01:01:08.293Z,29.60
2019-01-21T01:02:08.281Z,27.10
2019-01-21T01:03:08.261Z,28.20
2019-01-21T01:04:08.288Z,29.00
2019-01-21T01:05:08.256Z,27.10
2019-01-21T01:06:08.226Z,29.40
2019-01-21T01:07:08.215Z,29.20
2019-01-21T01:08:08.204Z,27.50
2019-01-21T01:09:08.194Z,29.60
2019-01-21T01:10:08.218Z,29.10
2019-01-21T01:11:08.172Z,25.90
2019-01-21T01:12:08.163Z,26.40
2019-01-21T01:13:08.150Z,27.90
2019-01-21T01:14:08.139Z,28.10
2019-01-21T01:15:08.156Z,28.30
2019-01-21T01:16:08.129Z,28.80
2019-01-21T01:17:08.112Z,26.70
2019-01-21T01:18:08.097Z,32.60
2019-01-21T01:19:08.084Z,28.60
2019-01-21T01:20:08.096Z,28.10
2019-01-21T01:21:08.065Z,30.00
2019-01-21T01:22:08.059Z,28.40
2019-01-21T01:23:08.042Z,27.20
2019-01-21T01:24:08.079Z,30.30
2019-01-21T01:25:08.038Z,29.10
2019-01-21T01:26:08.026Z,28.30
2019-01-21T01:27:07.998Z,27.60
2019-01-21T01:28:07.992Z,27.00
2019-01-21T01:29:07.980Z,30.10
2019-01-21T01:30:07.965Z,30.40
2019-01-21T01:31:07.973Z,27.20
2019-01-21T01:32:07.943Z,31.30
2019-01-21T01:33:07.933Z,27.60
2019-01-21T01:34:07.929Z,30.30
2019-01-21T01:35:07.916Z,29.80
2019-01-21T01:36:07.933Z,27.80
2019-01-21T01:37:07.900Z,28.90
2019-01-21T01:38:07.880Z,26.50
2019-01-21T01:39:07.883Z,29.50
2019-01-21T01:40:07.869Z,29.60
2019-01-21T01:41:07.888Z,27.10
2019-01-21T01:42:07.839Z,28.10
2019-01-21T01:43:07.826Z,26.80
2019-01-21T01:44:07.817Z,26.00
2019-01-21T01:45:07.803Z,25.80
2019-01-21T01:46:07.814Z,28.30
2019-01-21T01:47:07.789Z,28.40
2019-01-21T01:48:07.786Z,29.60
2019-01-21T01:49:07.793Z,28.10
2019-01-21T01:50:07.753Z,27.20
2019-01-21T01:51:07.779Z,28.30
2019-01-21T01:52:07.729Z,27.30
2019-01-21T01:53:07.752Z,27.80
2019-01-21T01:54:07.707Z,27.80
2019-01-21T01:55:07.698Z,27.40
2019-01-21T01:56:07.714Z,27.20
2019-01-21T01:57:07.678Z,28.40
2019-01-21T01:58:07.662Z,28.70
2019-01-21T01:59:07.653Z,28.50
2019-01-21T02:00:07.642Z,27.30
2019-01-21T02:01:07.631Z,28.00
2019-01-21T02:02:07.635Z,29.40
2019-01-21T02:03:07.609Z,28.60
2019-01-21T02:04:07.597Z,28.40
2019-01-21T02:05:07.587Z,28.20
2019-01-21T02:06:07.580Z,26.90
2019-01-21T02:07:07.582Z,27.50
2019-01-21T02:08:07.564Z,27.00
2019-01-21T02:09:07.543Z,29.00
2019-01-21T02:10:07.534Z,26.80
2019-01-21T02:11:07.520Z,32.40
2019-01-21T02:12:07.552Z,29.80
2019-01-21T02:13:07.506Z,29.70
2019-01-21T02:14:07.489Z,29.40
2019-01-21T02:15:07.478Z,26.10
2019-01-21T02:16:07.470Z,27.60
2019-01-21T02:17:07.475Z,27.30
2019-01-21T02:18:07.467Z,26.50
2019-01-21T02:19:07.433Z,31.90
2019-01-21T02:20:07.431Z,28.20
2019-01-21T02:21:07.412Z,26.80
2019-01-21T02:22:07.427Z,31.10
2019-01-21T02:23:07.407Z,28.90
2019-01-21T02:24:07.389Z,27.20
2019-01-21T02:25:07.376Z,29.00
2019-01-21T02:26:07.357Z,27.50
2019-01-21T02:27:07.347Z,29.20
2019-01-21T02:28:07.362Z,30.30
2019-01-21T02:29:07.329Z,29.50
2019-01-21T02:30:07.331Z,29.20
2019-01-21T02:31:07.304Z,31.10
2019-01-21T02:32:07.294Z,27.70
2019-01-21T02:33:07.290Z,28.00
2019-01-21T02:34:07.309Z,26.40
2019-01-21T02:35:07.262Z,27.90
2019-01-21T02:36:07.257Z,30.30
2019-01-21T02:37:07.238Z,27.70
2019-01-21T02:38:07.244Z,28.30
2019-01-21T02:39:07.237Z,27.00
2019-01-21T02:40:07.212Z,26.70
2019-01-21T02:41:07.195Z,28.90
2019-01-21T02:42:07.192Z,29.50
2019-01-21T02:43:07.173Z,27.80
2019-01-21T02:44:07.181Z,28.70
2019-01-21T02:45:07.152Z,28.50
2019-01-21T02:46:07.144Z,27.30
2019-01-21T02:47:07.194Z,27.90
2019-01-21T02:48:07.132Z,28.80
2019-01-21T02:49:07.130Z,27.60
2019-01-21T02:50:07.099Z,28.00
2019-01-21T02:51:07.089Z,29.40
2019-01-21T02:52:07.079Z,29.20
2019-01-21T02:53:07.063Z,30.00
2019-01-21T02:54:07.097Z,28.90
2019-01-21T02:55:07.044Z,28.10
2019-01-21T02:56:07.042Z,29.60
2019-01-21T02:57:07.023Z,27.30
2019-01-21T02:58:07.016Z,29.60
2019-01-21T02:59:07.018Z,28.70
2019-01-21T03:00:07.010Z,28.00
2019-01-21T03:01:06.995Z,27.40
2019-01-21T03:02:06.972Z,32.60
2019-01-21T03:03:06.957Z,28.10
2019-01-21T03:04:06.951Z,28.50
2019-01-21T03:05:06.960Z,30.50
2019-01-21T03:06:06.931Z,30.80
2019-01-21T03:07:06.920Z,28.10
2019-01-21T03:08:06.902Z,27.00
2019-01-21T03:09:06.893Z,28.90
2019-01-21T03:10:06.908Z,29.00
2019-01-21T03:11:06.892Z,29.60
2019-01-21T03:12:06.867Z,27.60
2019-01-21T03:13:06.862Z,29.20
2019-01-21T03:14:06.846Z,30.40
2019-01-21T03:15:06.844Z,31.40
2019-01-21T03:16:06.830Z,27.90
2019-01-21T03:17:06.809Z,29.30
2019-01-21T03:18:08.075Z,27.50
2019-01-21T03:19:06.790Z,30.00
2019-01-21T03:20:06.773Z,29.30
2019-01-21T03:21:06.778Z,31.00
2019-01-21T03:22:06.751Z,27.30
2019-01-21T03:23:06.741Z,29.10
2019-01-21T03:24:06.734Z,28.80
2019-01-21T03:25:06.730Z,29.10
2019-01-21T03:26:06.730Z,30.90
2019-01-21T03:27:06.697Z,31.30
2019-01-21T03:28:06.694Z,29.40
2019-01-21T03:29:06.678Z,28.90
2019-01-21T03:30:06.668Z,28.70
2019-01-21T03:31:06.696Z,28.40
2019-01-21T03:32:06.652Z,29.20
2019-01-21T03:33:06.634Z,31.40
2019-01-21T03:34:06.621Z,30.80
2019-01-21T03:35:06.634Z,32.30
2019-01-21T03:36:06.618Z,30.70
2019-01-21T03:37:06.588Z,28.10
2019-01-21T03:38:06.585Z,30.20
2019-01-21T03:39:06.567Z,29.40
2019-01-21T03:40:06.556Z,29.60
2019-01-21T03:41:06.574Z,29.10
2019-01-21T03:42:06.532Z,29.50
2019-01-21T03:43:06.524Z,31.80
2019-01-21T03:44:06.555Z,30.00
2019-01-21T03:45:06.517Z,30.20
2019-01-21T03:46:06.502Z,29.10
2019-01-21T03:47:06.497Z,30.50
2019-01-21T03:48:06.476Z,29.20
2019-01-21T03:49:06.458Z,28.10
2019-01-21T03:50:06.451Z,29.40
2019-01-21T03:51:06.440Z,31.00
2019-01-21T03:52:06.445Z,27.80
2019-01-21T03:53:06.414Z,31.60
2019-01-21T03:54:06.404Z,30.60
2019-01-21T03:55:06.392Z,27.10
2019-01-21T03:56:06.405Z,30.30
2019-01-21T03:57:06.391Z,31.10
2019-01-21T03:58:06.367Z,30.30
2019-01-21T03:59:06.349Z,28.30
2019-01-21T04:00:06.338Z,29.80
2019-01-21T04:01:06.327Z,31.10
2019-01-21T04:02:06.356Z,30.50
2019-01-21T04:03:06.316Z,31.20
2019-01-21T04:04:06.303Z,29.80
2019-01-21T04:05:06.286Z,27.90
2019-01-21T04:06:06.280Z,29.50
2019-01-21T04:07:06.344Z,32.40
2019-01-21T04:08:06.257Z,30.00
2019-01-21T04:09:06.269Z,32.00
2019-01-21T04:10:06.234Z,31.60
2019-01-21T04:11:06.230Z,30.10
2019-01-21T04:12:06.209Z,31.10
2019-01-21T04:13:06.219Z,29.30
2019-01-21T04:14:06.189Z,28.90
2019-01-21T04:15:06.180Z,32.00
2019-01-21T04:16:06.169Z,31.80
2019-01-21T04:17:06.155Z,31.40
2019-01-21T04:18:06.170Z,32.40
2019-01-21T04:19:06.131Z,31.40
2019-01-21T04:20:06.147Z,32.50
2019-01-21T04:21:06.112Z,34.50
2019-01-21T04:22:06.132Z,30.30
2019-01-21T04:23:06.121Z,33.30
2019-01-21T04:24:06.079Z,31.10
2019-01-21T04:25:06.093Z,31.50
2019-01-21T04:26:06.062Z,32.80
2019-01-21T04:27:06.054Z,32.80
2019-01-21T04:28:06.068Z,32.70
2019-01-21T04:29:06.025Z,30.50
2019-01-21T04:30:06.040Z,32.10
2019-01-21T04:31:06.012Z,31.60
2019-01-21T04:32:05.994Z,33.60
2019-01-21T04:33:06.006Z,32.40
2019-01-21T04:34:05.967Z,33.80
2019-01-21T04:35:05.968Z,32.80
2019-01-21T04:36:05.962Z,31.70
2019-01-21T04:37:05.949Z,31.50
2019-01-21T04:38:05.961Z,32.60
2019-01-21T04:39:05.925Z,32.10
2019-01-21T04:40:05.909Z,32.70
2019-01-21T04:41:05.911Z,31.60
2019-01-21T04:42:05.882Z,32.80
2019-01-21T04:43:05.898Z,32.50
2019-01-21T04:44:05.908Z,32.00
2019-01-21T04:45:05.850Z,33.80
2019-01-21T04:46:05.849Z,30.00
2019-01-21T04:47:05.850Z,34.10
2019-01-21T04:48:05.818Z,34.10
2019-01-21T04:49:05.836Z,33.30
2019-01-21T04:50:05.802Z,31.20
2019-01-21T04:51:05.799Z,32.60
2019-01-21T04:52:05.779Z,31.10
2019-01-21T04:53:05.772Z,31.10
2019-01-21T04:54:05.783Z,32.20
2019-01-21T04:55:05.742Z,32.00
2019-01-21T04:56:05.729Z,34.00
2019-01-21T04:57:05.730Z,32.10
2019-01-21T04:58:05.709Z,31.70
2019-01-21T04:59:05.738Z,33.90
2019-01-21T05:00:05.705Z,31.90
2019-01-21T05:01:05.679Z,34.20
2019-01-21T05:02:05.667Z,28.80
2019-01-21T05:03:05.658Z,32.00
2019-01-21T05:04:05.677Z,31.90
2019-01-21T05:05:05.685Z,31.40
2019-01-21T05:06:05.618Z,32.40
2019-01-21T05:07:05.610Z,32.30
2019-01-21T05:08:05.600Z,32.70
2019-01-21T05:09:05.603Z,31.10
2019-01-21T05:10:05.592Z,34.80
2019-01-21T05:11:05.565Z,34.10
2019-01-21T05:12:05.576Z,30.60
2019-01-21T05:13:05.546Z,30.90
2019-01-21T05:14:05.530Z,31.80
2019-01-21T05:15:05.564Z,31.70
2019-01-21T05:16:05.514Z,31.90
2019-01-21T05:17:05.505Z,33.10
2019-01-21T05:18:05.499Z,32.60
2019-01-21T05:19:05.481Z,33.90
2019-01-21T05:20:05.489Z,35.60
2019-01-21T05:21:05.478Z,31.50
2019-01-21T05:22:05.449Z,33.20
2019-01-21T05:23:05.439Z,33.00
2019-01-21T05:24:05.427Z,33.40
2019-01-21T05:25:05.432Z,31.70
2019-01-21T05:26:05.424Z,32.20
2019-01-21T05:27:05.396Z,33.30
2019-01-21T05:28:05.393Z,33.70
2019-01-21T05:29:05.373Z,34.20
2019-01-21T05:30:05.360Z,33.80
2019-01-21T05:31:05.365Z,32.10
2019-01-21T05:32:05.340Z,34.20
2019-01-21T05:33:05.329Z,33.50
2019-01-21T05:34:05.348Z,34.90
2019-01-21T05:35:05.307Z,33.20
2019-01-21T05:36:05.316Z,32.60
2019-01-21T05:37:05.303Z,31.10
2019-01-21T05:38:05.282Z,34.10
2019-01-21T05:39:05.273Z,32.50
2019-01-21T05:40:05.277Z,31.10
2019-01-21T05:41:05.256Z,32.00
2019-01-21T05:42:05.247Z,33.90
2019-01-21T05:43:05.221Z,34.20
2019-01-21T05:44:05.215Z,31.00
2019-01-21T05:45:05.197Z,33.00
2019-01-21T05:46:05.225Z,34.30
2019-01-21T05:47:05.195Z,34.50
2019-01-21T05:48:05.185Z,34.10
2019-01-21T05:49:05.157Z,36.60
2019-01-21T05:50:05.149Z,32.70
2019-01-21T05:51:05.138Z,33.50
2019-01-21T05:52:05.151Z,33.80
2019-01-21T05:53:05.110Z,31.60
2019-01-21T05:54:05.102Z,33.10
2019-01-21T05:55:05.092Z,34.90
2019-01-21T05:56:05.085Z,34.90
2019-01-21T05:57:05.086Z,34.20
2019-01-21T05:58:05.103Z,33.50
2019-01-21T05:59:05.049Z,36.50
2019-01-21T06:00:05.037Z,33.40
2019-01-21T06:01:05.028Z,32.30
2019-01-21T06:02:05.018Z,38.20
2019-01-21T06:03:05.028Z,31.60
2019-01-21T06:04:04.997Z,34.50
2019-01-21T06:05:04.988Z,34.40
2019-01-21T06:06:04.970Z,32.80
2019-01-21T06:07:04.958Z,30.20
2019-01-21T06:08:04.964Z,32.40
2019-01-21T06:09:04.937Z,32.40
2019-01-21T06:10:04.931Z,30.40
2019-01-21T06:11:04.931Z,32.30
2019-01-21T06:12:04.905Z,32.90
2019-01-21T06:13:04.919Z,33.80
2019-01-21T06:14:04.892Z,32.20
2019-01-21T06:15:04.877Z,32.70
2019-01-21T06:16:04.864Z,33.70
2019-01-21T06:17:04.862Z,33.10
2019-01-21T06:18:04.855Z,34.80
2019-01-21T06:19:04.852Z,31.20
2019-01-21T06:20:04.823Z,34.70
2019-01-21T06:21:04.812Z,37.30
2019-01-21T06:22:04.797Z,31.80
2019-01-21T06:23:04.830Z,35.00
2019-01-21T06:24:04.801Z,31.90
2019-01-21T06:25:04.764Z,33.40
2019-01-21T06:26:04.758Z,31.80
2019-01-21T06:27:04.745Z,32.80
2019-01-21T06:28:04.738Z,31.20
2019-01-21T06:29:04.739Z,32.60
2019-01-21T06:30:04.731Z,32.90
2019-01-21T06:31:04.705Z,34.50
2019-01-21T06:32:04.687Z,30.80
2019-01-21T06:33:04.677Z,31.30
2019-01-21T06:34:04.719Z,30.80
2019-01-21T06:35:04.654Z,33.80
2019-01-21T06:36:04.647Z,33.40
2019-01-21T06:37:04.651Z,32.90
2019-01-21T06:38:04.627Z,34.30
2019-01-21T06:39:04.641Z,30.60
2019-01-21T06:40:04.620Z,33.30
2019-01-21T06:41:04.593Z,33.50
2019-01-21T06:42:04.594Z,33.60
2019-01-21T06:43:04.578Z,33.10
2019-01-21T06:44:04.593Z,34.20
2019-01-21T06:45:04.547Z,31.90
2019-01-21T06:46:04.538Z,31.90
2019-01-21T06:47:04.527Z,31.80
2019-01-21T06:48:04.515Z,32.10
2019-01-21T06:49:05.033Z,31.40
2019-01-21T06:50:04.513Z,34.00
2019-01-21T06:51:04.481Z,33.30
2019-01-21T06:52:04.470Z,34.70
2019-01-21T06:53:04.463Z,34.00
2019-01-21T06:54:04.451Z,35.30
2019-01-21T06:55:04.477Z,30.50
2019-01-21T06:56:04.463Z,33.90
2019-01-21T06:57:04.416Z,32.60
2019-01-21T06:58:04.431Z,34.00
2019-01-21T06:59:04.401Z,33.70
2019-01-21T07:00:04.426Z,33.70
2019-01-21T07:01:04.399Z,33.10
2019-01-21T07:02:04.382Z,33.00
2019-01-21T07:03:04.365Z,31.80
2019-01-21T07:04:04.382Z,34.70
2019-01-21T07:05:04.448Z,32.80
2019-01-21T07:06:04.323Z,35.10
2019-01-21T07:07:04.323Z,33.20
2019-01-21T07:08:04.318Z,32.90
2019-01-21T07:09:04.304Z,35.60
2019-01-21T07:10:04.300Z,34.90
2019-01-21T07:11:04.273Z,33.20
2019-01-21T07:12:04.271Z,31.80
2019-01-21T07:13:04.245Z,32.60
2019-01-21T07:14:04.241Z,32.80
2019-01-21T07:15:04.231Z,32.00
2019-01-21T07:16:04.210Z,33.30
2019-01-21T07:17:04.216Z,32.00
2019-01-21T07:18:04.188Z,37.30
2019-01-21T07:19:04.180Z,36.80
2019-01-21T07:20:04.175Z,33.10
2019-01-21T07:21:04.162Z,33.20
2019-01-21T07:22:04.169Z,33.70
2019-01-21T07:23:04.132Z,35.90
2019-01-21T07:24:04.125Z,36.10
2019-01-21T07:25:04.115Z,34.90
2019-01-21T07:26:04.102Z,36.70
2019-01-21T07:27:04.118Z,36.40
2019-01-21T07:28:04.080Z,35.60
2019-01-21T07:29:04.071Z,35.50
2019-01-21T07:30:04.382Z,33.40
2019-01-21T07:31:04.051Z,34.60
2019-01-21T07:32:04.061Z,35.60
2019-01-21T07:33:04.047Z,34.80
2019-01-21T07:34:04.014Z,33.70
2019-01-21T07:35:04.010Z,36.20
2019-01-21T07:36:03.994Z,35.10
2019-01-21T07:37:03.999Z,36.10
2019-01-21T07:38:03.975Z,34.30
2019-01-21T07:39:03.967Z,34.90
2019-01-21T07:40:03.950Z,32.50
2019-01-21T07:41:03.939Z,36.40
2019-01-21T07:42:03.954Z,36.20
2019-01-21T07:43:03.918Z,34.30
2019-01-21T07:44:03.906Z,35.40
2019-01-21T07:45:03.894Z,34.00
2019-01-21T07:46:03.890Z,32.60
2019-01-21T07:47:03.874Z,32.40
2019-01-21T07:48:05.201Z,33.40
2019-01-21T07:49:03.856Z,34.70
2019-01-21T07:50:03.842Z,36.30
2019-01-21T07:51:03.831Z,34.40
2019-01-21T07:52:03.867Z,34.70
2019-01-21T07:53:03.809Z,33.10
2019-01-21T07:54:03.813Z,34.00
2019-01-21T07:55:03.787Z,34.20
2019-01-21T07:56:03.779Z,34.40
2019-01-21T07:57:03.764Z,36.40
2019-01-21T07:58:03.795Z,34.70
2019-01-21T07:59:03.743Z,32.20
2019-01-21T08:00:03.736Z,33.80
2019-01-21T08:01:03.724Z,31.10
2019-01-21T08:02:03.722Z,33.10
2019-01-21T08:03:03.722Z,32.40
2019-01-21T08:04:03.696Z,33.20
2019-01-21T08:05:03.684Z,33.30
2019-01-21T08:06:03.677Z,32.20
2019-01-21T08:07:03.660Z,33.60
2019-01-21T08:08:03.650Z,32.30
2019-01-21T08:09:03.650Z,35.00
2019-01-21T08:10:03.660Z,31.50
2019-01-21T08:11:03.617Z,31.50
2019-01-21T08:12:03.601Z,33.10
2019-01-21T08:13:03.598Z,31.30
2019-01-21T08:14:03.580Z,34.00
2019-01-21T08:15:03.589Z,33.60
2019-01-21T08:16:03.573Z,34.10
2019-01-21T08:17:03.564Z,33.90
2019-01-21T08:18:03.542Z,33.50
2019-01-21T08:19:03.601Z,33.80
2019-01-21T08:20:03.520Z,32.40
2019-01-21T08:21:03.506Z,33.10
2019-01-21T08:22:03.496Z,31.90
2019-01-21T08:23:03.502Z,33.30
2019-01-21T08:24:03.492Z,32.00
2019-01-21T08:25:03.483Z,32.90
2019-01-21T08:26:03.466Z,31.60
2019-01-21T08:27:03.444Z,35.50
2019-01-21T08:28:03.464Z,31.20
2019-01-21T08:29:03.439Z,32.30
2019-01-21T08:30:03.467Z,33.60
2019-01-21T08:31:03.400Z,33.20
2019-01-21T08:32:03.397Z,30.90
2019-01-21T08:33:03.378Z,31.10
2019-01-21T08:34:03.370Z,34.10
2019-01-21T08:35:03.387Z,34.00
2019-01-21T08:36:03.368Z,31.10
2019-01-21T08:37:03.342Z,32.50
2019-01-21T08:38:03.324Z,32.00
2019-01-21T08:39:03.316Z,33.10
2019-01-21T08:40:03.338Z,31.30
2019-01-21T08:41:03.308Z,32.00
2019-01-21T08:42:03.283Z,35.40
2019-01-21T08:43:03.276Z,32.30
2019-01-21T08:44:03.265Z,31.50
2019-01-21T08:45:03.250Z,32.00
2019-01-21T08:46:03.261Z,33.40
2019-01-21T08:47:03.232Z,34.50
2019-01-21T08:48:03.219Z,34.70
2019-01-21T08:49:03.230Z,33.10
2019-01-21T08:50:03.195Z,31.50
2019-01-21T08:51:03.205Z,33.00
2019-01-21T08:52:03.177Z,30.70
2019-01-21T08:53:03.170Z,31.80
2019-01-21T08:54:03.170Z,31.20
2019-01-21T08:55:03.144Z,29.60
2019-01-21T08:56:03.155Z,33.90
2019-01-21T08:57:04.537Z,30.70
2019-01-21T08:58:03.113Z,29.50
2019-01-21T08:59:03.133Z,31.60
2019-01-21T09:00:03.134Z,29.90
2019-01-21T09:01:03.098Z,30.50
2019-01-21T09:02:03.070Z,29.40
2019-01-21T09:03:03.090Z,30.70
2019-01-21T09:04:03.050Z,32.00
2019-01-21T09:05:03.062Z,30.20
2019-01-21T09:06:03.104Z,31.70
2019-01-21T09:07:03.043Z,34.20
2019-01-21T09:08:03.011Z,32.40
2019-01-21T09:09:03.042Z,32.90
2019-01-21T09:10:02.987Z,33.10
2019-01-21T09:11:03.003Z,31.20
2019-01-21T09:12:02.982Z,30.60
2019-01-21T09:13:02.947Z,30.80
2019-01-21T09:14:02.934Z,32.30
2019-01-21T09:15:02.952Z,28.90
2019-01-21T09:16:02.938Z,30.80
2019-01-21T09:17:02.924Z,29.60
2019-01-21T09:18:02.936Z,29.10
2019-01-21T09:19:02.880Z,29.50
2019-01-21T09:20:02.869Z,28.40
2019-01-21T09:21:02.876Z,28.50
2019-01-21T09:22:02.865Z,31.00
2019-01-21T09:23:02.866Z,28.30
2019-01-21T09:24:02.830Z,30.90
2019-01-21T09:25:02.837Z,31.10
2019-01-21T09:26:02.822Z,33.70
2019-01-21T09:27:02.813Z,30.60
2019-01-21T09:28:02.806Z,31.20
2019-01-21T09:29:02.774Z,29.30
2019-01-21T09:30:02.769Z,28.70
2019-01-21T09:31:02.750Z,28.70
2019-01-21T09:32:02.742Z,30.60
2019-01-21T09:33:02.776Z,30.00
2019-01-21T09:34:02.786Z,29.50
2019-01-21T09:35:02.716Z,28.30
2019-01-21T09:36:02.711Z,28.00
2019-01-21T09:37:02.706Z,28.30
2019-01-21T09:38:02.676Z,30.80
2019-01-21T09:39:02.672Z,29.00
2019-01-21T09:40:02.652Z,27.20
2019-01-21T09:41:02.636Z,29.00
2019-01-21T09:42:02.669Z,28.50
2019-01-21T09:43:02.656Z,30.60
2019-01-21T09:44:02.621Z,28.80
2019-01-21T09:45:02.590Z,31.10
2019-01-21T09:46:02.614Z,30.50
2019-01-21T09:47:02.579Z,29.40
2019-01-21T09:48:02.562Z,27.50
2019-01-21T09:49:02.567Z,28.00
2019-01-21T09:50:02.533Z,27.10
2019-01-21T09:51:02.528Z,27.60
2019-01-21T09:52:02.519Z,28.80
2019-01-21T09:53:02.549Z,25.60
2019-01-21T09:54:02.533Z,25.10
2019-01-21T09:55:02.484Z,27.90
2019-01-21T09:56:02.469Z,27.30
2019-01-21T09:57:02.491Z,25.20
2019-01-21T09:58:02.469Z,24.80
2019-01-21T09:59:02.438Z,27.80
2019-01-21T10:00:02.452Z,25.60
2019-01-21T10:01:02.430Z,26.20
2019-01-21T10:02:02.403Z,24.20
2019-01-21T10:03:02.394Z,25.40
2019-01-21T10:04:02.387Z,24.50
2019-01-21T10:05:02.419Z,25.60
2019-01-21T10:06:02.392Z,27.10
2019-01-21T10:07:02.349Z,25.60
2019-01-21T10:08:02.339Z,26.60
2019-01-21T10:09:02.331Z,25.50
2019-01-21T10:10:02.352Z,25.70
2019-01-21T10:11:03.567Z,26.40
2019-01-21T10:12:02.296Z,28.40
2019-01-21T10:13:02.293Z,27.60
2019-01-21T10:14:02.289Z,26.10
2019-01-21T10:15:02.297Z,25.30
2019-01-21T10:16:02.274Z,24.40
2019-01-21T10:17:02.241Z,25.10
2019-01-21T10:18:02.228Z,27.10
2019-01-21T10:19:02.221Z,25.00
2019-01-21T10:20:02.227Z,27.70
2019-01-21T10:21:02.210Z,28.80
2019-01-21T10:22:02.186Z,25.90
2019-01-21T10:23:02.212Z,26.30
2019-01-21T10:24:02.167Z,28.20
2019-01-21T10:25:02.182Z,26.30
2019-01-21T10:26:02.201Z,28.20
2019-01-21T10:27:02.173Z,26.60
2019-01-21T10:28:02.132Z,25.90
2019-01-21T10:29:02.106Z,27.80
2019-01-21T10:30:02.109Z,24.80
2019-01-21T10:31:02.106Z,26.00
2019-01-21T10:32:02.088Z,29.00
2019-01-21T10:33:02.096Z,28.60
2019-01-21T10:34:02.128Z,26.80
2019-01-21T10:35:02.049Z,26.90
2019-01-21T10:36:02.055Z,25.20
2019-01-21T10:37:02.021Z,25.80
2019-01-21T10:38:02.007Z,26.70
2019-01-21T10:39:02.002Z,24.30
2019-01-21T10:40:02.019Z,24.90
2019-01-21T10:41:01.998Z,25.60
2019-01-21T10:42:01.979Z,24.20
2019-01-21T10:43:01.952Z,24.70
2019-01-21T10:44:01.951Z,25.20
2019-01-21T10:45:01.934Z,32.60
2019-01-21T10:46:01.949Z,27.70
2019-01-21T10:47:01.910Z,26.70
2019-01-21T10:48:01.902Z,23.30
2019-01-21T10:49:01.904Z,23.40
2019-01-21T10:50:01.882Z,24.90
2019-01-21T10:51:01.869Z,26.50
2019-01-21T10:52:01.875Z,25.20
2019-01-21T10:53:01.858Z,23.70
2019-01-21T10:54:01.830Z,25.40
2019-01-21T10:55:01.827Z,23.60
2019-01-21T10:56:01.810Z,23.50
2019-01-21T10:57:01.829Z,24.90
2019-01-21T10:58:01.807Z,24.80
2019-01-21T10:59:01.785Z,24.00
2019-01-21T11:00:01.781Z,25.10
2019-01-21T11:01:01.754Z,24.50
2019-01-21T11:02:01.779Z,22.50
2019-01-21T11:03:02.660Z,23.90
2019-01-21T11:04:01.718Z,22.40
2019-01-21T11:05:01.754Z,22.40
2019-01-21T11:06:01.696Z,24.30
2019-01-21T11:07:01.714Z,24.30
2019-01-21T11:08:01.692Z,24.40
2019-01-21T11:09:01.689Z,23.60
2019-01-21T11:10:01.654Z,25.00
2019-01-21T11:11:01.666Z,24.90
2019-01-21T11:12:01.652Z,25.40
2019-01-21T11:13:01.630Z,23.10
2019-01-21T11:14:01.613Z,22.60
2019-01-21T11:15:01.615Z,23.70
2019-01-21T11:16:01.589Z,23.30
2019-01-21T11:17:01.600Z,23.30
2019-01-21T11:18:01.567Z,22.90
2019-01-21T11:19:01.576Z,23.80
2019-01-21T11:20:04.148Z,24.20
2019-01-21T11:21:01.542Z,23.30
2019-01-21T11:22:01.525Z,23.50
2019-01-21T11:23:01.546Z,24.30
2019-01-21T11:24:01.509Z,24.90
2019-01-21T11:25:01.497Z,26.00
2019-01-21T11:26:01.488Z,24.30
2019-01-21T11:27:01.466Z,24.50
2019-01-21T11:28:01.489Z,23.40
2019-01-21T11:29:01.446Z,24.00
2019-01-21T11:30:01.457Z,24.00
2019-01-21T11:31:01.444Z,22.70
2019-01-21T11:32:01.418Z,23.90
2019-01-21T11:33:01.436Z,23.40
2019-01-21T11:34:01.500Z,23.40
2019-01-21T11:35:01.389Z,24.10
2019-01-21T11:36:01.364Z,25.80
2019-01-21T11:37:01.360Z,22.50
2019-01-21T11:38:01.378Z,23.80
2019-01-21T11:39:01.388Z,24.00
2019-01-21T11:40:01.327Z,24.80
2019-01-21T11:41:01.313Z,23.30
2019-01-21T11:42:01.311Z,22.60
2019-01-21T11:43:01.306Z,25.10
2019-01-21T11:44:01.296Z,24.50
2019-01-21T11:45:01.267Z,21.90
2019-01-21T11:46:01.261Z,25.20
2019-01-21T11:47:01.247Z,23.80
2019-01-21T11:48:01.243Z,24.10
2019-01-21T11:49:01.258Z,24.00
2019-01-21T11:50:01.257Z,25.90
2019-01-21T11:51:01.204Z,23.70
2019-01-21T11:52:01.194Z,23.90
2019-01-21T11:53:01.181Z,23.50
2019-01-21T11:54:01.172Z,24.00
2019-01-21T11:55:01.201Z,23.40
2019-01-21T11:56:01.155Z,23.30
2019-01-21T11:57:01.149Z,24.40
2019-01-21T11:58:01.127Z,24.80
2019-01-21T11:59:01.115Z,25.00
2019-01-21T12:00:01.111Z,23.80
2019-01-21T12:01:01.106Z,26.30
2019-01-21T12:02:01.085Z,27.50
2019-01-21T12:03:01.092Z,24.70
2019-01-21T12:04:01.060Z,24.30
2019-01-21T12:05:01.055Z,25.10
2019-01-21T12:06:01.054Z,23.30
2019-01-21T12:07:01.034Z,24.90
2019-01-21T12:08:01.031Z,23.50
2019-01-21T12:09:01.007Z,23.50
2019-01-21T12:10:01.007Z,23.30
2019-01-21T12:11:00.981Z,23.20
2019-01-21T12:12:00.986Z,21.60
2019-01-21T12:13:00.958Z,25.70
2019-01-21T12:14:00.977Z,24.40
2019-01-21T12:15:00.964Z,23.50
2019-01-21T12:16:00.952Z,24.10
2019-01-21T12:17:00.914Z,25.00
2019-01-21T12:18:00.900Z,23.90
2019-01-21T12:19:00.899Z,22.90
2019-01-21T12:20:00.891Z,25.10
2019-01-21T12:21:00.880Z,24.00
2019-01-21T12:22:00.855Z,24.50
2019-01-21T12:23:00.843Z,28.70
2019-01-21T12:24:00.839Z,23.20
2019-01-21T12:25:00.824Z,24.90
2019-01-21T12:26:00.836Z,24.80
2019-01-21T12:27:00.832Z,25.00
2019-01-21T12:28:00.786Z,25.60
2019-01-21T12:29:02.022Z,23.70
2019-01-21T12:30:00.771Z,25.10
2019-01-21T12:31:00.790Z,24.60
2019-01-21T12:32:00.760Z,24.50
2019-01-21T12:33:00.733Z,24.70
2019-01-21T12:34:00.724Z,24.00
2019-01-21T12:35:00.716Z,24.40
2019-01-21T12:36:00.696Z,24.50
2019-01-21T12:37:00.715Z,24.40
2019-01-21T12:38:00.686Z,26.00
2019-01-21T12:39:00.681Z,23.70
2019-01-21T12:40:00.696Z,23.60
2019-01-21T12:41:00.639Z,25.70
2019-01-21T12:42:00.672Z,25.50
2019-01-21T12:43:00.642Z,23.90
2019-01-21T12:44:00.614Z,22.80
2019-01-21T12:45:00.618Z,23.30
2019-01-21T12:46:00.586Z,23.10
2019-01-21T12:47:00.573Z,24.30
2019-01-21T12:48:00.585Z,24.80
2019-01-21T12:49:00.548Z,23.40
2019-01-21T12:50:00.555Z,28.50
2019-01-21T12:51:00.530Z,25.00
2019-01-21T12:52:00.537Z,23.30